»·PEaware :: N123KT KLAX-KLAS

N123KT :: KLAX-KLAS

FLIGHT INFORMATION

Flight Status: Arrived
Operator: Privately registered:
United States
More flights under this callsign
Pilot: Anonymous 475 (475)
Aircraft: BOEING 777-200
(B772)
More flights by this aircraft type
Origin: KLAX Los Angeles Intl
United States
Destination: KLAS McCarran Intl
United States
More flights between these airports :: More routes between these airports
Route: +ORCKA2 MISEN KEPEC6
File this flight plan on PilotEdge
Remarks:
Altitude:
(Current/Filed)
27,000ft
Speed:
(Current/Filed)
410kts
Departed: 22-Sep-18 04:33 PM
Arrived: 22-Sep-18 05:23 PM
Distance/Time
Traveled:
205nm/0:50
Distance/Time
To Go:
Arrived

Flight Plot

Page will automatically refresh every two minutes.


Map Options




Map Legend


Flown Route
Filed Route
Departure Airport
Arrival Airport
Navaid (VOR, NDB)
Fix

Horizontal Profiles

Position Reports

Time Latitude Longitude Heading Altitude Ground
Speed
22-Sep-18 16:07 33.940555 -118.408816 265 139ft 0kts
22-Sep-18 16:08 33.940555 -118.408817 265 139ft 0kts
22-Sep-18 16:09 33.940555 -118.408817 265 139ft 0kts
22-Sep-18 16:10 33.940555 -118.408818 265 139ft 0kts
22-Sep-18 16:11 33.940555 -118.408819 265 139ft 0kts
22-Sep-18 16:12 33.940555 -118.408819 265 139ft 0kts
22-Sep-18 16:13 33.940555 -118.408820 265 139ft 0kts
22-Sep-18 16:14 33.940554 -118.408821 265 139ft 0kts
22-Sep-18 16:15 33.940554 -118.408821 265 139ft 0kts
22-Sep-18 16:16 33.940554 -118.408822 265 139ft 0kts
22-Sep-18 16:17 33.940566 -118.408635 265 139ft 2kts
22-Sep-18 16:18 33.941103 -118.408043 179 139ft 2kts
22-Sep-18 16:19 33.941152 -118.408045 176 139ft 0kts
22-Sep-18 16:20 33.939999 -118.407956 176 139ft 6kts
22-Sep-18 16:21 33.939758 -118.407937 176 139ft 0kts
22-Sep-18 16:22 33.939758 -118.407937 176 139ft 0kts
22-Sep-18 16:23 33.938499 -118.407695 171 139ft 4kts
22-Sep-18 16:24 33.938199 -118.406177 81 139ft 10kts
22-Sep-18 16:25 33.938706 -118.401109 81 139ft 14kts
22-Sep-18 16:26 33.939189 -118.396756 84 139ft 11kts
22-Sep-18 16:27 33.939509 -118.393208 82 139ft 12kts
22-Sep-18 16:28 33.939972 -118.388983 85 139ft 11kts
22-Sep-18 16:29 33.940252 -118.385635 83 139ft 8kts
22-Sep-18 16:30 33.940518 -118.382971 83 139ft 7kts
22-Sep-18 16:31 33.940731 -118.380915 92 139ft 0kts
22-Sep-18 16:32 33.940731 -118.380915 92 139ft 0kts
22-Sep-18 16:33 33.940554 -118.380424 132 139ft 5kts
22-Sep-18 16:34 33.939751 -118.381185 262 139ft 9kts
22-Sep-18 16:35 33.935905 -118.418943 263 1405ft 184kts
22-Sep-18 16:36 33.923946 -118.487625 250 3975ft 255kts
22-Sep-18 16:37 33.895566 -118.573273 240 5006ft 280kts
22-Sep-18 16:38 33.830280 -118.581905 133 7038ft 278kts
22-Sep-18 16:39 33.838810 -118.494195 41 10838ft 318kts
22-Sep-18 16:40 33.927155 -118.444438 38 13909ft 380kts
22-Sep-18 16:41 33.985257 -118.335778 55 15798ft 398kts
22-Sep-18 16:42 34.051711 -118.224511 56 19561ft 421kts
22-Sep-18 16:43 34.119352 -118.103723 55 22934ft 443kts
22-Sep-18 16:44 34.188876 -117.980672 55 26518ft 444kts
22-Sep-18 16:45 34.246681 -117.877850 55 26947ft 442kts
22-Sep-18 16:46 34.326923 -117.734070 55 26963ft 442kts
22-Sep-18 16:47 34.397620 -117.612191 53 26975ft 442kts
22-Sep-18 16:48 34.457767 -117.511668 53 26998ft 442kts
22-Sep-18 16:49 34.541491 -117.370416 53 27026ft 442kts
22-Sep-18 16:50 34.601460 -117.269905 53 27023ft 442kts
22-Sep-18 16:51 34.673152 -117.148677 53 27044ft 442kts
22-Sep-18 16:52 34.745009 -117.026833 53 27023ft 442kts
22-Sep-18 16:53 34.816241 -116.905535 54 26983ft 442kts
22-Sep-18 16:54 34.884862 -116.787765 54 26961ft 442kts
22-Sep-18 16:55 34.955495 -116.665330 54 26965ft 434kts
22-Sep-18 16:56 35.021605 -116.547832 54 26983ft 410kts
22-Sep-18 16:57 35.084903 -116.435012 55 25256ft 395kts
22-Sep-18 16:58 35.155654 -116.334425 43 23941ft 383kts
22-Sep-18 16:59 35.229938 -116.243429 45 21731ft 374kts
22-Sep-18 17:00 35.302350 -116.152477 45 20351ft 369kts
22-Sep-18 17:01 35.372810 -116.063976 45 18952ft 359kts
22-Sep-18 17:02 35.441842 -115.977010 46 17638ft 352kts
22-Sep-18 17:03 35.509433 -115.891826 46 16315ft 344kts
22-Sep-18 17:04 35.575277 -115.807980 46 15018ft 337kts
22-Sep-18 17:05 35.639704 -115.725732 46 13749ft 330kts
22-Sep-18 17:06 35.702571 -115.645507 46 13058ft 320kts
22-Sep-18 17:07 35.771173 -115.578662 14 13061ft 320kts
22-Sep-18 17:08 35.859885 -115.569464 0 13063ft 320kts
22-Sep-18 17:09 35.947663 -115.556752 29 13044ft 320kts
22-Sep-18 17:10 35.985639 -115.462587 80 12258ft 312kts
22-Sep-18 17:11 35.998545 -115.358457 82 10473ft 307kts
22-Sep-18 17:12 36.011449 -115.258016 82 9301ft 290kts
22-Sep-18 17:13 36.016478 -115.161279 96 8691ft 272kts
22-Sep-18 17:14 36.009742 -115.071210 96 8045ft 251kts
22-Sep-18 17:15 36.004986 -114.989185 96 8004ft 249kts
22-Sep-18 17:16 36.001211 -114.927437 96 8009ft 251kts
22-Sep-18 17:17 35.995924 -114.841318 96 7995ft 251kts
22-Sep-18 17:18 36.025729 -114.775620 7 7363ft 244kts
22-Sep-18 17:19 36.068887 -114.825766 293 6159ft 226kts
22-Sep-18 17:20 36.074199 -114.900488 266 5067ft 217kts
22-Sep-18 17:21 36.073795 -114.967766 267 4603ft 182kts
22-Sep-18 17:22 36.073740 -115.024361 267 3728ft 149kts
22-Sep-18 17:23 36.073700 -115.074736 267 2942ft 147kts
22-Sep-18 17:24 36.073669 -115.124984 267 2178ft 143kts
22-Sep-18 17:25 36.074236 -115.144480 296 2128ft 0kts
22-Sep-18 17:26 36.074393 -115.144871 296 2128ft 5kts
22-Sep-18 17:27 36.075681 -115.146460 353 2128ft 9kts
22-Sep-18 17:28 36.078431 -115.147382 324 2128ft 9kts
22-Sep-18 17:29 36.079702 -115.147298 59 2128ft 0kts
22-Sep-18 17:30 36.079702 -115.147298 59 2128ft 0kts

Navigation Log

Ident Type
Flight plan parsing failed, navigation log unavailable